sensor_id;sensor_type;location;lat;lon;timestamp;P1;durP1;ratioP1;P2;durP2;ratioP2
61531;SDS011;47397;48.194;11.632;2024-01-15T00:00:16;6.93;;;3.65;;
61531;SDS011;47397;48.194;11.632;2024-01-15T00:01:17;8.65;;;4.15;;
61531;SDS011;47397;48.194;11.632;2024-01-15T00:02:18;7.78;;;3.78;;
61531;SDS011;47397;48.194;11.632;2024-01-15T00:03:18;6.88;;;3.60;;
61531;SDS011;47397;48.194;11.632;2024-01-15T00:04:18;9.85;;;3.97;;
61531;SDS011;47397;48.194;11.632;2024-01-15T00:05:19;8.15;;;3.88;;
61531;SDS011;47397;48.194;11.632;2024-01-15T00:06:19;7.80;;;3.97;;
61531;SDS011;47397;48.194;11.632;2024-01-15T00:07:19;7.90;;;4.07;;
61531;SDS011;47397;48.194;11.632;2024-01-15T00:08:20;7.22;;;3.92;;
61531;SDS011;47397;48.194;11.632;2024-01-15T00:09:20;7.07;;;3.53;;
61531;SDS011;47397;48.194;11.632;2024-01-15T00:10:22;6.57;;;4.18;;
61531;SDS011;47397;48.194;11.632;2024-01-15T00:11:23;7.05;;;3.75;;
61531;SDS011;47397;48.194;11.632;2024-01-15T00:12:23;8.00;;;4.18;;
61531;SDS011;47397;48.194;11.632;2024-01-15T00:13:23;7.47;;;4.18;;
61531;SDS011;47397;48.194;11.632;2024-01-15T00:14:24;7.60;;;4.13;;
61531;SDS011;47397;48.194;11.632;2024-01-15T00:15:24;7.97;;;4.20;;
61531;SDS011;47397;48.194;11.632;2024-01-15T00:16:24;8.40;;;4.22;;
61531;SDS011;47397;48.194;11.632;2024-01-15T00:17:25;7.63;;;4.00;;
61531;SDS011;47397;48.194;11.632;2024-01-15T00:18:25;8.70;;;4.47;;
61531;SDS011;47397;48.194;11.632;2024-01-15T00:19:25;8.65;;;4.20;;
61531;SDS011;47397;48.194;11.632;2024-01-15T00:20:26;7.47;;;4.28;;
61531;SDS011;47397;48.194;11.632;2024-01-15T00:21:26;7.80;;;4.40;;
61531;SDS011;47397;48.194;11.632;2024-01-15T00:22:26;7.53;;;4.28;;
61531;SDS011;47397;48.194;11.632;2024-01-15T00:23:27;8.77;;;4.07;;
61531;SDS011;47397;48.194;11.632;2024-01-15T00:24:27;7.80;;;3.92;;
61531;SDS011;47397;48.194;11.632;2024-01-15T00:25:29;7.22;;;4.40;;
61531;SDS011;47397;48.194;11.632;2024-01-15T00:26:29;6.85;;;3.53;;
61531;SDS011;47397;48.194;11.632;2024-01-15T00:27:30;8.95;;;4.22;;
61531;SDS011;47397;48.194;11.632;2024-01-15T00:28:30;8.50;;;4.03;;
61531;SDS011;47397;48.194;11.632;2024-01-15T00:29:30;8.18;;;4.60;;
61531;SDS011;47397;48.194;11.632;2024-01-15T00:30:31;9.93;;;4.82;;
61531;SDS011;47397;48.194;11.632;2024-01-15T00:31:31;8.68;;;3.95;;
61531;SDS011;47397;48.194;11.632;2024-01-15T00:32:31;8.45;;;4.05;;
61531;SDS011;47397;48.194;11.632;2024-01-15T00:33:32;8.45;;;4.47;;
61531;SDS011;47397;48.194;11.632;2024-01-15T00:34:32;7.78;;;4.43;;
61531;SDS011;47397;48.194;11.632;2024-01-15T00:35:32;7.70;;;3.80;;
61531;SDS011;47397;48.194;11.632;2024-01-15T00:36:33;8.85;;;4.53;;
61531;SDS011;47397;48.194;11.632;2024-01-15T00:37:33;8.48;;;4.07;;
61531;SDS011;47397;48.194;11.632;2024-01-15T00:38:34;9.80;;;4.90;;
61531;SDS011;47397;48.194;11.632;2024-01-15T00:39:34;12.57;;;5.18;;
61531;SDS011;47397;48.194;11.632;2024-01-15T00:40:36;8.70;;;5.38;;
61531;SDS011;47397;48.194;11.632;2024-01-15T00:41:36;9.88;;;4.90;;
61531;SDS011;47397;48.194;11.632;2024-01-15T00:42:37;9.90;;;4.65;;
61531;SDS011;47397;48.194;11.632;2024-01-15T00:43:37;9.90;;;4.65;;
61531;SDS011;47397;48.194;11.632;2024-01-15T00:44:37;7.93;;;4.45;;
61531;SDS011;47397;48.194;11.632;2024-01-15T00:45:38;9.98;;;5.18;;
61531;SDS011;47397;48.194;11.632;2024-01-15T00:46:42;9.98;;;5.05;;
61531;SDS011;47397;48.194;11.632;2024-01-15T00:47:43;10.00;;;4.97;;
61531;SDS011;47397;48.194;11.632;2024-01-15T00:48:43;8.02;;;4.68;;
61531;SDS011;47397;48.194;11.632;2024-01-15T00:49:44;10.52;;;5.57;;
61531;SDS011;47397;48.194;11.632;2024-01-15T00:50:44;11.00;;;6.00;;
61531;SDS011;47397;48.194;11.632;2024-01-15T00:51:45;9.35;;;5.10;;
61531;SDS011;47397;48.194;11.632;2024-01-15T00:52:45;10.73;;;5.65;;
61531;SDS011;47397;48.194;11.632;2024-01-15T00:53:45;10.68;;;6.15;;
61531;SDS011;47397;48.194;11.632;2024-01-15T00:54:46;10.10;;;6.07;;
61531;SDS011;47397;48.194;11.632;2024-01-15T00:55:47;12.73;;;6.13;;
61531;SDS011;47397;48.194;11.632;2024-01-15T00:56:48;10.23;;;6.53;;
61531;SDS011;47397;48.194;11.632;2024-01-15T00:57:48;14.45;;;7.63;;
61531;SDS011;47397;48.194;11.632;2024-01-15T00:58:48;15.48;;;7.47;;
61531;SDS011;47397;48.194;11.632;2024-01-15T00:59:49;12.65;;;7.68;;
61531;SDS011;47397;48.194;11.632;2024-01-15T01:00:49;12.02;;;7.47;;
61531;SDS011;47397;48.194;11.632;2024-01-15T01:01:49;12.40;;;6.90;;
61531;SDS011;47397;48.194;11.632;2024-01-15T01:02:50;14.35;;;8.07;;
61531;SDS011;47397;48.194;11.632;2024-01-15T01:03:50;10.35;;;6.57;;
61531;SDS011;47397;48.194;11.632;2024-01-15T01:04:50;15.68;;;7.00;;
61531;SDS011;47397;48.194;11.632;2024-01-15T01:05:51;16.67;;;8.00;;
61531;SDS011;47397;48.194;11.632;2024-01-15T01:06:51;16.45;;;7.38;;
61531;SDS011;47397;48.194;11.632;2024-01-15T01:07:51;16.02;;;7.68;;
61531;SDS011;47397;48.194;11.632;2024-01-15T01:08:52;13.15;;;7.50;;
61531;SDS011;47397;48.194;11.632;2024-01-15T01:09:52;11.93;;;6.72;;
61531;SDS011;47397;48.194;11.632;2024-01-15T01:10:55;12.15;;;6.68;;
61531;SDS011;47397;48.194;11.632;2024-01-15T01:11:56;10.55;;;6.43;;
61531;SDS011;47397;48.194;11.632;2024-01-15T01:12:56;12.82;;;7.78;;
61531;SDS011;47397;48.194;11.632;2024-01-15T01:13:57;12.13;;;5.30;;
61531;SDS011;47397;48.194;11.632;2024-01-15T01:14:57;12.50;;;6.93;;
61531;SDS011;47397;48.194;11.632;2024-01-15T01:15:57;11.73;;;7.60;;
61531;SDS011;47397;48.194;11.632;2024-01-15T01:16:58;13.85;;;7.25;;
61531;SDS011;47397;48.194;11.632;2024-01-15T01:17:58;11.68;;;6.57;;
61531;SDS011;47397;48.194;11.632;2024-01-15T01:18:58;13.98;;;6.97;;
61531;SDS011;47397;48.194;11.632;2024-01-15T01:19:59;13.75;;;7.18;;
61531;SDS011;47397;48.194;11.632;2024-01-15T01:20:59;10.98;;;5.95;;
61531;SDS011;47397;48.194;11.632;2024-01-15T01:21:59;11.95;;;6.60;;
61531;SDS011;47397;48.194;11.632;2024-01-15T01:23:00;12.43;;;6.88;;
61531;SDS011;47397;48.194;11.632;2024-01-15T01:24:00;11.45;;;6.78;;
61531;SDS011;47397;48.194;11.632;2024-01-15T01:25:00;12.77;;;7.03;;
61531;SDS011;47397;48.194;11.632;2024-01-15T01:26:02;11.48;;;6.07;;
61531;SDS011;47397;48.194;11.632;2024-01-15T01:27:03;12.15;;;6.47;;
61531;SDS011;47397;48.194;11.632;2024-01-15T01:28:04;11.20;;;5.60;;
61531;SDS011;47397;48.194;11.632;2024-01-15T01:29:04;12.63;;;7.05;;
61531;SDS011;47397;48.194;11.632;2024-01-15T01:30:05;11.65;;;6.95;;
61531;SDS011;47397;48.194;11.632;2024-01-15T01:31:06;11.07;;;6.00;;
61531;SDS011;47397;48.194;11.632;2024-01-15T01:32:06;10.43;;;5.63;;
61531;SDS011;47397;48.194;11.632;2024-01-15T01:33:07;12.30;;;6.18;;
61531;SDS011;47397;48.194;11.632;2024-01-15T01:34:07;10.80;;;5.75;;
61531;SDS011;47397;48.194;11.632;2024-01-15T01:35:08;11.95;;;6.35;;
61531;SDS011;47397;48.194;11.632;2024-01-15T01:36:08;11.68;;;5.32;;
61531;SDS011;47397;48.194;11.632;2024-01-15T01:37:08;11.85;;;6.40;;
61531;SDS011;47397;48.194;11.632;2024-01-15T01:38:09;13.13;;;6.32;;
61531;SDS011;47397;48.194;11.632;2024-01-15T01:39:09;10.20;;;5.85;;
61531;SDS011;47397;48.194;11.632;2024-01-15T01:40:10;10.90;;;4.85;;
61531;SDS011;47397;48.194;11.632;2024-01-15T01:41:12;9.55;;;5.32;;
61531;SDS011;47397;48.194;11.632;2024-01-15T01:42:12;11.00;;;5.70;;
61531;SDS011;47397;48.194;11.632;2024-01-15T01:43:13;8.43;;;4.65;;
61531;SDS011;47397;48.194;11.632;2024-01-15T01:44:13;11.40;;;5.45;;
61531;SDS011;47397;48.194;11.632;2024-01-15T01:45:13;9.18;;;4.70;;
61531;SDS011;47397;48.194;11.632;2024-01-15T01:46:14;9.05;;;5.20;;
61531;SDS011;47397;48.194;11.632;2024-01-15T01:47:15;10.15;;;4.78;;
61531;SDS011;47397;48.194;11.632;2024-01-15T01:48:15;10.85;;;5.30;;
61531;SDS011;47397;48.194;11.632;2024-01-15T01:49:16;10.57;;;5.15;;
61531;SDS011;47397;48.194;11.632;2024-01-15T01:50:17;9.45;;;4.72;;
61531;SDS011;47397;48.194;11.632;2024-01-15T01:51:17;8.52;;;4.38;;
61531;SDS011;47397;48.194;11.632;2024-01-15T01:52:18;8.68;;;4.28;;
61531;SDS011;47397;48.194;11.632;2024-01-15T01:53:18;9.55;;;5.22;;
61531;SDS011;47397;48.194;11.632;2024-01-15T01:54:19;8.43;;;4.90;;
61531;SDS011;47397;48.194;11.632;2024-01-15T01:55:20;8.32;;;4.50;;
61531;SDS011;47397;48.194;11.632;2024-01-15T01:56:25;9.57;;;4.55;;
61531;SDS011;47397;48.194;11.632;2024-01-15T01:57:26;11.40;;;5.38;;
61531;SDS011;47397;48.194;11.632;2024-01-15T01:58:27;9.18;;;4.43;;
61531;SDS011;47397;48.194;11.632;2024-01-15T01:59:28;8.68;;;4.55;;
61531;SDS011;47397;48.194;11.632;2024-01-15T02:00:30;9.70;;;4.53;;
61531;SDS011;47397;48.194;11.632;2024-01-15T02:01:31;8.13;;;4.40;;
61531;SDS011;47397;48.194;11.632;2024-01-15T02:02:32;9.77;;;4.45;;
61531;SDS011;47397;48.194;11.632;2024-01-15T02:03:33;8.10;;;4.47;;
61531;SDS011;47397;48.194;11.632;2024-01-15T02:04:34;9.73;;;4.43;;
61531;SDS011;47397;48.194;11.632;2024-01-15T02:05:36;8.20;;;4.63;;
61531;SDS011;47397;48.194;11.632;2024-01-15T02:06:37;11.43;;;5.40;;
61531;SDS011;47397;48.194;11.632;2024-01-15T02:07:37;7.47;;;4.88;;
61531;SDS011;47397;48.194;11.632;2024-01-15T02:08:38;10.07;;;5.50;;
61531;SDS011;47397;48.194;11.632;2024-01-15T02:09:41;8.43;;;4.90;;
61531;SDS011;47397;48.194;11.632;2024-01-15T02:10:41;10.10;;;4.75;;
61531;SDS011;47397;48.194;11.632;2024-01-15T02:11:43;10.15;;;5.53;;
61531;SDS011;47397;48.194;11.632;2024-01-15T02:12:43;11.18;;;5.55;;
61531;SDS011;47397;48.194;11.632;2024-01-15T02:13:44;9.23;;;4.65;;
61531;SDS011;47397;48.194;11.632;2024-01-15T02:14:45;8.18;;;4.40;;
61531;SDS011;47397;48.194;11.632;2024-01-15T02:15:45;13.35;;;5.15;;
61531;SDS011;47397;48.194;11.632;2024-01-15T02:16:45;8.48;;;5.38;;
61531;SDS011;47397;48.194;11.632;2024-01-15T02:17:59;9.35;;;4.47;;
61531;SDS011;47397;48.194;11.632;2024-01-15T02:19:01;9.20;;;5.65;;
61531;SDS011;47397;48.194;11.632;2024-01-15T02:20:01;8.73;;;4.50;;
61531;SDS011;47397;48.194;11.632;2024-01-15T02:21:01;9.77;;;4.90;;
61531;SDS011;47397;48.194;11.632;2024-01-15T02:22:02;10.50;;;4.78;;
61531;SDS011;47397;48.194;11.632;2024-01-15T02:23:07;10.82;;;4.68;;
61531;SDS011;47397;48.194;11.632;2024-01-15T02:24:08;10.45;;;4.40;;
61531;SDS011;47397;48.194;11.632;2024-01-15T02:25:09;8.68;;;4.80;;
61531;SDS011;47397;48.194;11.632;2024-01-15T02:26:09;8.73;;;4.68;;
61531;SDS011;47397;48.194;11.632;2024-01-15T02:27:10;10.90;;;4.22;;
61531;SDS011;47397;48.194;11.632;2024-01-15T02:28:11;10.18;;;5.55;;
61531;SDS011;47397;48.194;11.632;2024-01-15T02:29:12;8.32;;;5.43;;
61531;SDS011;47397;48.194;11.632;2024-01-15T02:30:14;11.60;;;6.45;;
61531;SDS011;47397;48.194;11.632;2024-01-15T02:31:15;8.30;;;4.57;;
61531;SDS011;47397;48.194;11.632;2024-01-15T02:32:15;9.50;;;5.05;;
61531;SDS011;47397;48.194;11.632;2024-01-15T02:33:16;9.10;;;4.80;;
61531;SDS011;47397;48.194;11.632;2024-01-15T02:34:16;10.90;;;5.43;;
61531;SDS011;47397;48.194;11.632;2024-01-15T02:35:17;11.38;;;5.75;;
61531;SDS011;47397;48.194;11.632;2024-01-15T02:36:17;11.82;;;5.57;;
61531;SDS011;47397;48.194;11.632;2024-01-15T02:37:17;10.48;;;5.50;;
61531;SDS011;47397;48.194;11.632;2024-01-15T02:38:19;12.05;;;5.70;;
61531;SDS011;47397;48.194;11.632;2024-01-15T02:39:19;12.52;;;5.55;;
61531;SDS011;47397;48.194;11.632;2024-01-15T02:40:20;10.65;;;5.10;;
61531;SDS011;47397;48.194;11.632;2024-01-15T02:41:20;9.77;;;5.22;;
61531;SDS011;47397;48.194;11.632;2024-01-15T02:42:20;11.65;;;5.18;;
61531;SDS011;47397;48.194;11.632;2024-01-15T02:43:21;10.13;;;5.30;;
61531;SDS011;47397;48.194;11.632;2024-01-15T02:44:21;9.52;;;5.00;;
61531;SDS011;47397;48.194;11.632;2024-01-15T02:45:21;10.85;;;5.05;;
61531;SDS011;47397;48.194;11.632;2024-01-15T02:46:22;12.60;;;5.20;;
61531;SDS011;47397;48.194;11.632;2024-01-15T02:47:23;10.05;;;5.45;;
61531;SDS011;47397;48.194;11.632;2024-01-15T02:48:23;9.75;;;4.97;;
61531;SDS011;47397;48.194;11.632;2024-01-15T02:49:23;12.05;;;5.95;;
61531;SDS011;47397;48.194;11.632;2024-01-15T02:50:24;12.02;;;5.45;;
61531;SDS011;47397;48.194;11.632;2024-01-15T02:51:24;12.18;;;5.03;;
61531;SDS011;47397;48.194;11.632;2024-01-15T02:52:25;11.60;;;5.03;;
61531;SDS011;47397;48.194;11.632;2024-01-15T02:53:27;11.80;;;5.40;;
61531;SDS011;47397;48.194;11.632;2024-01-15T02:54:28;11.13;;;5.75;;
61531;SDS011;47397;48.194;11.632;2024-01-15T02:55:28;9.10;;;4.82;;
61531;SDS011;47397;48.194;11.632;2024-01-15T02:56:28;11.52;;;5.50;;
61531;SDS011;47397;48.194;11.632;2024-01-15T02:57:29;10.07;;;5.00;;
61531;SDS011;47397;48.194;11.632;2024-01-15T02:58:29;12.00;;;6.03;;
61531;SDS011;47397;48.194;11.632;2024-01-15T02:59:29;10.75;;;4.82;;
61531;SDS011;47397;48.194;11.632;2024-01-15T03:00:30;11.68;;;6.03;;
61531;SDS011;47397;48.194;11.632;2024-01-15T03:01:30;9.40;;;5.45;;
61531;SDS011;47397;48.194;11.632;2024-01-15T03:02:30;11.77;;;6.57;;
61531;SDS011;47397;48.194;11.632;2024-01-15T03:03:31;12.82;;;6.32;;
61531;SDS011;47397;48.194;11.632;2024-01-15T03:04:31;11.27;;;5.63;;
61531;SDS011;47397;48.194;11.632;2024-01-15T03:05:31;11.13;;;5.72;;
61531;SDS011;47397;48.194;11.632;2024-01-15T03:06:32;12.10;;;6.25;;
61531;SDS011;47397;48.194;11.632;2024-01-15T03:07:32;15.10;;;6.43;;
61531;SDS011;47397;48.194;11.632;2024-01-15T03:08:34;12.38;;;5.93;;
61531;SDS011;47397;48.194;11.632;2024-01-15T03:09:34;11.30;;;5.82;;
61531;SDS011;47397;48.194;11.632;2024-01-15T03:10:34;13.70;;;6.20;;
61531;SDS011;47397;48.194;11.632;2024-01-15T03:11:36;9.63;;;5.00;;
61531;SDS011;47397;48.194;11.632;2024-01-15T03:12:37;12.07;;;5.78;;
61531;SDS011;47397;48.194;11.632;2024-01-15T03:13:37;13.07;;;5.75;;
61531;SDS011;47397;48.194;11.632;2024-01-15T03:14:38;10.52;;;4.90;;
61531;SDS011;47397;48.194;11.632;2024-01-15T03:15:39;11.88;;;6.95;;
61531;SDS011;47397;48.194;11.632;2024-01-15T03:16:39;10.95;;;5.43;;
61531;SDS011;47397;48.194;11.632;2024-01-15T03:17:40;11.05;;;5.88;;
61531;SDS011;47397;48.194;11.632;2024-01-15T03:18:41;9.82;;;5.28;;
61531;SDS011;47397;48.194;11.632;2024-01-15T03:19:41;13.23;;;5.80;;
61531;SDS011;47397;48.194;11.632;2024-01-15T03:20:42;9.63;;;5.20;;
61531;SDS011;47397;48.194;11.632;2024-01-15T03:21:42;10.70;;;5.55;;
61531;SDS011;47397;48.194;11.632;2024-01-15T03:22:42;10.77;;;5.57;;
61531;SDS011;47397;48.194;11.632;2024-01-15T03:23:44;11.60;;;5.93;;
61531;SDS011;47397;48.194;11.632;2024-01-15T03:24:44;10.23;;;5.22;;
61531;SDS011;47397;48.194;11.632;2024-01-15T03:25:45;12.90;;;6.22;;
61531;SDS011;47397;48.194;11.632;2024-01-15T03:26:45;11.38;;;5.70;;
61531;SDS011;47397;48.194;11.632;2024-01-15T03:27:45;10.10;;;4.68;;
61531;SDS011;47397;48.194;11.632;2024-01-15T03:28:46;10.25;;;5.50;;
61531;SDS011;47397;48.194;11.632;2024-01-15T03:29:46;11.18;;;5.60;;
61531;SDS011;47397;48.194;11.632;2024-01-15T03:30:46;11.18;;;5.57;;
61531;SDS011;47397;48.194;11.632;2024-01-15T03:31:47;11.00;;;5.70;;
61531;SDS011;47397;48.194;11.632;2024-01-15T03:32:47;13.02;;;5.55;;
61531;SDS011;47397;48.194;11.632;2024-01-15T03:33:47;9.90;;;5.43;;
61531;SDS011;47397;48.194;11.632;2024-01-15T03:34:48;9.30;;;5.55;;
61531;SDS011;47397;48.194;11.632;2024-01-15T03:35:48;9.60;;;5.38;;
61531;SDS011;47397;48.194;11.632;2024-01-15T03:36:48;12.23;;;5.85;;
61531;SDS011;47397;48.194;11.632;2024-01-15T03:37:49;10.60;;;5.22;;
61531;SDS011;47397;48.194;11.632;2024-01-15T03:38:50;11.82;;;5.25;;
61531;SDS011;47397;48.194;11.632;2024-01-15T03:39:51;9.15;;;5.72;;
61531;SDS011;47397;48.194;11.632;2024-01-15T03:40:51;12.45;;;5.90;;
61531;SDS011;47397;48.194;11.632;2024-01-15T03:41:51;11.85;;;5.80;;
61531;SDS011;47397;48.194;11.632;2024-01-15T03:42:53;11.00;;;5.97;;
61531;SDS011;47397;48.194;11.632;2024-01-15T03:43:53;10.43;;;5.45;;
61531;SDS011;47397;48.194;11.632;2024-01-15T03:44:53;10.13;;;5.20;;
61531;SDS011;47397;48.194;11.632;2024-01-15T03:45:54;10.88;;;5.82;;
61531;SDS011;47397;48.194;11.632;2024-01-15T03:46:54;11.30;;;5.68;;
61531;SDS011;47397;48.194;11.632;2024-01-15T03:47:55;12.52;;;5.50;;
61531;SDS011;47397;48.194;11.632;2024-01-15T03:48:55;11.27;;;5.97;;
61531;SDS011;47397;48.194;11.632;2024-01-15T03:49:55;10.85;;;5.55;;
61531;SDS011;47397;48.194;11.632;2024-01-15T03:50:56;11.13;;;5.70;;
61531;SDS011;47397;48.194;11.632;2024-01-15T03:51:56;11.00;;;4.93;;
61531;SDS011;47397;48.194;11.632;2024-01-15T03:52:56;11.00;;;5.53;;
61531;SDS011;47397;48.194;11.632;2024-01-15T03:53:58;11.25;;;5.30;;
61531;SDS011;47397;48.194;11.632;2024-01-15T03:54:58;12.27;;;5.82;;
61531;SDS011;47397;48.194;11.632;2024-01-15T03:55:59;10.68;;;5.78;;
61531;SDS011;47397;48.194;11.632;2024-01-15T03:56:59;10.38;;;5.97;;
61531;SDS011;47397;48.194;11.632;2024-01-15T03:57:59;10.90;;;5.32;;
61531;SDS011;47397;48.194;11.632;2024-01-15T03:59:00;13.65;;;5.82;;
61531;SDS011;47397;48.194;11.632;2024-01-15T04:00:00;11.57;;;5.55;;
61531;SDS011;47397;48.194;11.632;2024-01-15T04:01:00;10.77;;;5.60;;
61531;SDS011;47397;48.194;11.632;2024-01-15T04:02:01;10.15;;;5.43;;
61531;SDS011;47397;48.194;11.632;2024-01-15T04:03:01;12.25;;;5.80;;
61531;SDS011;47397;48.194;11.632;2024-01-15T04:04:01;11.93;;;6.10;;
61531;SDS011;47397;48.194;11.632;2024-01-15T04:05:02;12.52;;;5.93;;
61531;SDS011;47397;48.194;11.632;2024-01-15T04:06:03;12.30;;;5.78;;
61531;SDS011;47397;48.194;11.632;2024-01-15T04:07:03;12.07;;;5.18;;
61531;SDS011;47397;48.194;11.632;2024-01-15T04:08:04;10.55;;;5.13;;
61531;SDS011;47397;48.194;11.632;2024-01-15T04:09:06;9.05;;;5.07;;
61531;SDS011;47397;48.194;11.632;2024-01-15T04:10:07;11.40;;;5.65;;
61531;SDS011;47397;48.194;11.632;2024-01-15T04:11:07;11.77;;;5.88;;
61531;SDS011;47397;48.194;11.632;2024-01-15T04:12:07;11.38;;;5.35;;
61531;SDS011;47397;48.194;11.632;2024-01-15T04:13:08;13.50;;;5.85;;
61531;SDS011;47397;48.194;11.632;2024-01-15T04:14:08;12.63;;;6.03;;
61531;SDS011;47397;48.194;11.632;2024-01-15T04:15:09;12.38;;;5.65;;
61531;SDS011;47397;48.194;11.632;2024-01-15T04:16:09;10.75;;;5.65;;
61531;SDS011;47397;48.194;11.632;2024-01-15T04:17:09;11.25;;;5.53;;
61531;SDS011;47397;48.194;11.632;2024-01-15T04:18:10;14.27;;;5.90;;
61531;SDS011;47397;48.194;11.632;2024-01-15T04:19:10;11.05;;;5.70;;
61531;SDS011;47397;48.194;11.632;2024-01-15T04:20:10;12.35;;;5.28;;
61531;SDS011;47397;48.194;11.632;2024-01-15T04:21:11;9.50;;;5.13;;
61531;SDS011;47397;48.194;11.632;2024-01-15T04:22:11;10.18;;;5.18;;
61531;SDS011;47397;48.194;11.632;2024-01-15T04:23:11;10.38;;;5.00;;
61531;SDS011;47397;48.194;11.632;2024-01-15T04:24:13;12.38;;;5.53;;
61531;SDS011;47397;48.194;11.632;2024-01-15T04:25:14;9.60;;;5.28;;
61531;SDS011;47397;48.194;11.632;2024-01-15T04:26:14;10.10;;;5.70;;
61531;SDS011;47397;48.194;11.632;2024-01-15T04:27:14;9.75;;;5.22;;
61531;SDS011;47397;48.194;11.632;2024-01-15T04:28:15;10.50;;;5.75;;
61531;SDS011;47397;48.194;11.632;2024-01-15T04:29:15;10.27;;;5.88;;
61531;SDS011;47397;48.194;11.632;2024-01-15T04:30:15;11.63;;;5.72;;
61531;SDS011;47397;48.194;11.632;2024-01-15T04:31:22;10.52;;;4.57;;
61531;SDS011;47397;48.194;11.632;2024-01-15T04:32:23;9.73;;;4.90;;
61531;SDS011;47397;48.194;11.632;2024-01-15T04:33:24;11.65;;;5.50;;
61531;SDS011;47397;48.194;11.632;2024-01-15T04:34:24;12.32;;;5.82;;
61531;SDS011;47397;48.194;11.632;2024-01-15T04:35:24;10.60;;;5.80;;
61531;SDS011;47397;48.194;11.632;2024-01-15T04:36:25;9.82;;;5.45;;
61531;SDS011;47397;48.194;11.632;2024-01-15T04:37:25;13.43;;;5.43;;
61531;SDS011;47397;48.194;11.632;2024-01-15T04:38:25;10.63;;;6.00;;
61531;SDS011;47397;48.194;11.632;2024-01-15T04:39:27;11.30;;;5.60;;
61531;SDS011;47397;48.194;11.632;2024-01-15T04:40:27;9.75;;;6.13;;
61531;SDS011;47397;48.194;11.632;2024-01-15T04:41:28;12.98;;;5.22;;
61531;SDS011;47397;48.194;11.632;2024-01-15T04:42:28;11.40;;;5.50;;
61531;SDS011;47397;48.194;11.632;2024-01-15T04:43:28;9.50;;;5.57;;
61531;SDS011;47397;48.194;11.632;2024-01-15T04:44:29;8.18;;;4.40;;
61531;SDS011;47397;48.194;11.632;2024-01-15T04:45:29;8.25;;;4.68;;
61531;SDS011;47397;48.194;11.632;2024-01-15T04:46:29;11.55;;;6.07;;
61531;SDS011;47397;48.194;11.632;2024-01-15T04:47:30;12.73;;;5.93;;
61531;SDS011;47397;48.194;11.632;2024-01-15T04:48:30;10.85;;;5.68;;
61531;SDS011;47397;48.194;11.632;2024-01-15T04:49:31;10.82;;;5.82;;
61531;SDS011;47397;48.194;11.632;2024-01-15T04:50:31;9.38;;;4.80;;
61531;SDS011;47397;48.194;11.632;2024-01-15T04:51:31;9.90;;;5.20;;
61531;SDS011;47397;48.194;11.632;2024-01-15T04:52:31;10.35;;;5.70;;
61531;SDS011;47397;48.194;11.632;2024-01-15T04:53:32;9.02;;;4.40;;
61531;SDS011;47397;48.194;11.632;2024-01-15T04:54:34;7.57;;;4.47;;
61531;SDS011;47397;48.194;11.632;2024-01-15T04:55:34;10.60;;;5.50;;
61531;SDS011;47397;48.194;11.632;2024-01-15T04:56:35;12.27;;;5.43;;
61531;SDS011;47397;48.194;11.632;2024-01-15T04:57:35;10.50;;;5.50;;
61531;SDS011;47397;48.194;11.632;2024-01-15T04:58:35;9.98;;;5.22;;
61531;SDS011;47397;48.194;11.632;2024-01-15T04:59:36;12.20;;;6.05;;
61531;SDS011;47397;48.194;11.632;2024-01-15T05:00:36;10.73;;;6.03;;
61531;SDS011;47397;48.194;11.632;2024-01-15T05:01:36;9.85;;;5.03;;
61531;SDS011;47397;48.194;11.632;2024-01-15T05:02:36;9.13;;;4.95;;
61531;SDS011;47397;48.194;11.632;2024-01-15T05:03:37;9.32;;;4.78;;
61531;SDS011;47397;48.194;11.632;2024-01-15T05:04:37;10.48;;;5.65;;
61531;SDS011;47397;48.194;11.632;2024-01-15T05:05:37;10.10;;;4.90;;
61531;SDS011;47397;48.194;11.632;2024-01-15T05:06:38;10.68;;;5.22;;
61531;SDS011;47397;48.194;11.632;2024-01-15T05:07:38;10.30;;;4.85;;
61531;SDS011;47397;48.194;11.632;2024-01-15T05:08:38;11.30;;;5.60;;
61531;SDS011;47397;48.194;11.632;2024-01-15T05:09:40;8.60;;;5.07;;
61531;SDS011;47397;48.194;11.632;2024-01-15T05:10:40;10.40;;;5.40;;
61531;SDS011;47397;48.194;11.632;2024-01-15T05:11:41;10.68;;;5.35;;
61531;SDS011;47397;48.194;11.632;2024-01-15T05:12:41;8.43;;;4.63;;
61531;SDS011;47397;48.194;11.632;2024-01-15T05:13:41;10.52;;;5.40;;
61531;SDS011;47397;48.194;11.632;2024-01-15T05:14:42;10.77;;;5.60;;
61531;SDS011;47397;48.194;11.632;2024-01-15T05:15:42;9.75;;;5.20;;
61531;SDS011;47397;48.194;11.632;2024-01-15T05:16:46;10.20;;;5.78;;
61531;SDS011;47397;48.194;11.632;2024-01-15T05:17:46;10.93;;;5.18;;
61531;SDS011;47397;48.194;11.632;2024-01-15T05:18:47;10.50;;;5.68;;
61531;SDS011;47397;48.194;11.632;2024-01-15T05:19:47;9.70;;;5.35;;
61531;SDS011;47397;48.194;11.632;2024-01-15T05:20:47;9.18;;;5.40;;
61531;SDS011;47397;48.194;11.632;2024-01-15T05:21:47;13.45;;;5.80;;
61531;SDS011;47397;48.194;11.632;2024-01-15T05:22:48;11.25;;;5.18;;
61531;SDS011;47397;48.194;11.632;2024-01-15T05:23:48;8.40;;;4.40;;
61531;SDS011;47397;48.194;11.632;2024-01-15T05:24:50;12.45;;;5.45;;
61531;SDS011;47397;48.194;11.632;2024-01-15T05:25:50;10.25;;;5.20;;
61531;SDS011;47397;48.194;11.632;2024-01-15T05:26:50;8.88;;;4.78;;
61531;SDS011;47397;48.194;11.632;2024-01-15T05:27:51;11.68;;;5.93;;
61531;SDS011;47397;48.194;11.632;2024-01-15T05:28:51;10.65;;;5.15;;
61531;SDS011;47397;48.194;11.632;2024-01-15T05:29:51;10.55;;;5.78;;
61531;SDS011;47397;48.194;11.632;2024-01-15T05:30:52;9.77;;;5.07;;
61531;SDS011;47397;48.194;11.632;2024-01-15T05:31:52;10.40;;;5.28;;
61531;SDS011;47397;48.194;11.632;2024-01-15T05:32:52;9.57;;;4.93;;
61531;SDS011;47397;48.194;11.632;2024-01-15T05:33:52;9.95;;;5.28;;
61531;SDS011;47397;48.194;11.632;2024-01-15T05:34:53;10.13;;;5.07;;
61531;SDS011;47397;48.194;11.632;2024-01-15T05:35:53;13.75;;;5.65;;
61531;SDS011;47397;48.194;11.632;2024-01-15T05:36:53;9.00;;;5.32;;
61531;SDS011;47397;48.194;11.632;2024-01-15T05:37:54;9.20;;;5.15;;
61531;SDS011;47397;48.194;11.632;2024-01-15T05:38:54;10.85;;;5.68;;
61531;SDS011;47397;48.194;11.632;2024-01-15T05:39:56;9.80;;;5.03;;
61531;SDS011;47397;48.194;11.632;2024-01-15T05:40:56;7.75;;;4.15;;
61531;SDS011;47397;48.194;11.632;2024-01-15T05:41:57;9.98;;;5.60;;
61531;SDS011;47397;48.194;11.632;2024-01-15T05:42:58;9.77;;;4.70;;
61531;SDS011;47397;48.194;11.632;2024-01-15T05:43:58;9.75;;;4.90;;
61531;SDS011;47397;48.194;11.632;2024-01-15T05:44:58;10.63;;;4.90;;
61531;SDS011;47397;48.194;11.632;2024-01-15T05:45:59;9.00;;;4.90;;
61531;SDS011;47397;48.194;11.632;2024-01-15T05:46:59;9.93;;;5.07;;
61531;SDS011;47397;48.194;11.632;2024-01-15T05:47:59;10.57;;;5.80;;
61531;SDS011;47397;48.194;11.632;2024-01-15T05:49:00;9.48;;;5.10;;
61531;SDS011;47397;48.194;11.632;2024-01-15T05:50:00;8.10;;;4.38;;
61531;SDS011;47397;48.194;11.632;2024-01-15T05:51:01;10.98;;;5.50;;
61531;SDS011;47397;48.194;11.632;2024-01-15T05:52:01;8.32;;;4.30;;
61531;SDS011;47397;48.194;11.632;2024-01-15T05:53:01;9.20;;;4.78;;
61531;SDS011;47397;48.194;11.632;2024-01-15T05:54:02;9.45;;;5.18;;
61531;SDS011;47397;48.194;11.632;2024-01-15T05:55:04;10.40;;;4.97;;
61531;SDS011;47397;48.194;11.632;2024-01-15T05:56:05;9.55;;;5.80;;